createdAt,value
2022-09-15T00:01:15.813Z,73.60
2022-09-15T00:03:45.587Z,73.70
2022-09-15T00:06:13.396Z,73.40
2022-09-15T00:08:40.972Z,73.50
2022-09-15T00:11:25.864Z,73.70
2022-09-15T00:13:53.769Z,73.40
2022-09-15T00:16:27.375Z,73.90
2022-09-15T00:18:54.725Z,74.10
2022-09-15T00:21:26.247Z,74.10
2022-09-15T00:23:53.301Z,74.00
2022-09-15T00:26:23.449Z,74.40
2022-09-15T00:28:51.366Z,74.40
2022-09-15T00:31:21.272Z,74.80
2022-09-15T00:33:49.845Z,74.90
2022-09-15T00:36:17.539Z,75.60
2022-09-15T00:38:47.130Z,76.70
2022-09-15T00:41:16.189Z,75.90
2022-09-15T00:44:05.008Z,76.60
2022-09-15T00:46:58.721Z,77.00
2022-09-15T00:49:35.877Z,77.30
2022-09-15T00:52:36.088Z,78.10
2022-09-15T00:55:16.146Z,79.00
2022-09-15T00:57:52.443Z,78.90
2022-09-15T01:00:21.515Z,79.20
2022-09-15T01:02:49.359Z,78.90
2022-09-15T01:05:20.847Z,79.60
2022-09-15T01:07:54.147Z,79.30
2022-09-15T01:10:28.490Z,80.20
2022-09-15T01:12:58.266Z,80.70
2022-09-15T01:15:46.139Z,81.60
2022-09-15T01:18:23.714Z,81.70
2022-09-15T01:21:12.175Z,82.60
2022-09-15T01:23:56.520Z,83.10
2022-09-15T01:26:44.479Z,83.70
2022-09-15T01:29:49.791Z,83.70
2022-09-15T01:32:43.732Z,83.80
2022-09-15T01:35:34.129Z,84.20
2022-09-15T01:38:11.865Z,84.00
2022-09-15T01:40:46.080Z,84.40
2022-09-15T01:43:17.806Z,84.90
2022-09-15T01:45:49.868Z,84.90
2022-09-15T01:48:20.211Z,85.60
2022-09-15T01:50:54.232Z,86.40
2022-09-15T01:53:22.996Z,86.20
2022-09-15T01:55:54.985Z,86.80
2022-09-15T01:58:22.276Z,88.30
2022-09-15T02:01:10.064Z,88.20
2022-09-15T02:03:46.885Z,88.30
2022-09-15T02:06:36.608Z,87.60
2022-09-15T02:09:36.758Z,86.60
2022-09-15T02:12:12.413Z,86.40
2022-09-15T02:14:43.488Z,86.40
2022-09-15T02:17:14.952Z,86.10
2022-09-15T02:19:46.968Z,85.80
2022-09-15T02:22:44.085Z,85.40
2022-09-15T02:25:25.152Z,85.10
2022-09-15T02:27:54.889Z,84.70
2022-09-15T02:30:23.020Z,84.40
2022-09-15T02:32:56.692Z,84.30
2022-09-15T02:35:26.860Z,84.00
2022-09-15T02:38:00.026Z,84.00
2022-09-15T02:40:28.851Z,84.60
2022-09-15T02:42:58.201Z,84.60
2022-09-15T02:45:25.884Z,85.20
2022-09-15T02:47:52.961Z,86.50
2022-09-15T02:50:22.439Z,86.40
2022-09-15T02:52:51.464Z,86.90
2022-09-15T02:55:20.944Z,88.00
2022-09-15T02:57:48.051Z,87.90
2022-09-15T03:00:19.436Z,87.40
2022-09-15T03:02:54.399Z,88.00
2022-09-15T03:05:23.889Z,88.20
2022-09-15T03:07:52.217Z,88.70
2022-09-15T03:10:19.352Z,89.00
2022-09-15T03:12:49.456Z,89.70
2022-09-15T03:15:19.704Z,89.60
2022-09-15T03:17:47.919Z,90.10
2022-09-15T03:20:21.171Z,90.00
2022-09-15T03:22:49.517Z,90.00
2022-09-15T03:25:17.701Z,90.10
2022-09-15T03:27:44.539Z,90.30
2022-09-15T03:30:14.387Z,90.10
2022-09-15T03:32:41.396Z,90.10
2022-09-15T03:35:08.751Z,90.20
2022-09-15T03:37:35.855Z,90.30
2022-09-15T03:40:03.943Z,90.30
2022-09-15T03:42:33.139Z,90.40
2022-09-15T03:45:02.027Z,90.20
2022-09-15T03:47:28.981Z,90.50
2022-09-15T03:49:55.785Z,90.40
2022-09-15T03:52:26.135Z,90.90
2022-09-15T03:54:52.875Z,91.60
2022-09-15T03:57:22.505Z,91.70
2022-09-15T03:59:49.543Z,92.20
2022-09-15T04:02:16.379Z,92.60
2022-09-15T04:04:43.165Z,92.80
2022-09-15T04:07:09.991Z,93.00
2022-09-15T04:09:37.350Z,93.20
2022-09-15T04:12:04.575Z,93.40
2022-09-15T04:14:31.474Z,93.60
2022-09-15T04:16:58.212Z,94.10
2022-09-15T04:19:25.471Z,94.20
2022-09-15T04:21:54.556Z,94.30
2022-09-15T04:24:21.288Z,94.50
2022-09-15T04:26:48.611Z,94.60
2022-09-15T04:29:17.447Z,94.70
2022-09-15T04:31:44.856Z,94.30
2022-09-15T04:34:11.966Z,94.30
2022-09-15T04:36:38.723Z,93.60
2022-09-15T04:39:06.632Z,93.30
2022-09-15T04:41:33.967Z,93.10
2022-09-15T04:44:01.215Z,92.90
2022-09-15T04:46:32.659Z,92.90
2022-09-15T04:48:59.646Z,92.90
2022-09-15T04:51:28.958Z,92.90
2022-09-15T04:53:58.584Z,92.90
2022-09-15T04:56:26.826Z,93.20
2022-09-15T04:59:03.565Z,93.40
2022-09-15T05:01:33.864Z,93.60
2022-09-15T05:04:04.479Z,93.70
2022-09-15T05:06:31.807Z,93.70
2022-09-15T05:09:01.305Z,93.70
2022-09-15T05:11:28.431Z,93.70
2022-09-15T05:13:55.314Z,93.20
2022-09-15T05:16:26.767Z,92.90
2022-09-15T05:18:56.858Z,92.90
2022-09-15T05:21:29.899Z,92.70
2022-09-15T05:23:57.300Z,92.90
2022-09-15T05:26:29.356Z,92.90
2022-09-15T05:28:57.302Z,92.90
2022-09-15T05:31:27.378Z,93.00
2022-09-15T05:33:54.580Z,92.90
2022-09-15T05:36:25.163Z,92.70
2022-09-15T05:39:01.710Z,92.20
2022-09-15T05:41:29.482Z,92.20
2022-09-15T05:43:59.426Z,91.70
2022-09-15T05:46:27.004Z,91.50
2022-09-15T05:48:57.803Z,91.30
2022-09-15T05:51:24.997Z,90.90
2022-09-15T05:53:52.035Z,90.70
2022-09-15T05:56:19.342Z,90.60
2022-09-15T05:58:47.645Z,90.10
2022-09-15T06:01:25.467Z,89.00
2022-09-15T06:03:53.175Z,87.20
2022-09-15T06:06:23.191Z,84.20
2022-09-15T06:08:58.031Z,82.60
2022-09-15T06:11:30.896Z,82.30
2022-09-15T06:14:06.108Z,80.80
2022-09-15T06:16:34.557Z,79.70
2022-09-15T06:19:03.463Z,78.70
2022-09-15T06:21:33.871Z,77.80
2022-09-15T06:24:03.531Z,76.80
2022-09-15T06:26:30.362Z,76.60
2022-09-15T06:29:00.428Z,76.70
2022-09-15T06:31:32.336Z,76.30
2022-09-15T06:34:03.980Z,75.70
2022-09-15T06:36:31.765Z,74.30
2022-09-15T06:39:01.514Z,73.20
2022-09-15T06:41:38.272Z,72.80
2022-09-15T06:44:14.182Z,71.20
2022-09-15T06:46:43.214Z,71.00
2022-09-15T06:49:10.118Z,70.00
2022-09-15T06:51:37.027Z,70.20
2022-09-15T06:54:04.447Z,69.10
2022-09-15T06:56:35.868Z,68.20
2022-09-15T06:59:04.766Z,68.00
2022-09-15T07:01:32.776Z,67.90
2022-09-15T07:04:04.013Z,68.00
2022-09-15T07:06:32.770Z,68.20
2022-09-15T07:09:00.539Z,67.60
2022-09-15T07:11:29.427Z,67.40
2022-09-15T07:13:56.886Z,67.00
2022-09-15T07:16:25.566Z,67.00
2022-09-15T07:18:55.839Z,66.00
2022-09-15T07:21:23.282Z,66.10
2022-09-15T07:23:56.163Z,66.00
2022-09-15T07:26:26.212Z,66.20
2022-09-15T07:29:01.270Z,65.70
2022-09-15T07:31:32.625Z,65.80
2022-09-15T07:34:04.227Z,65.70
2022-09-15T07:36:31.975Z,65.10
2022-09-15T07:38:58.974Z,64.40
2022-09-15T07:41:28.459Z,64.40
2022-09-15T07:43:57.292Z,63.10
2022-09-15T07:46:25.902Z,63.30
2022-09-15T07:48:56.480Z,62.80
2022-09-15T07:51:24.566Z,62.80
2022-09-15T07:53:52.102Z,62.50
2022-09-15T07:56:19.778Z,62.20
2022-09-15T07:58:47.819Z,62.30
2022-09-15T08:01:15.171Z,61.80
2022-09-15T08:03:43.616Z,62.10
2022-09-15T08:06:11.120Z,61.80
2022-09-15T08:08:41.660Z,61.10
2022-09-15T08:11:10.567Z,60.30
2022-09-15T08:13:38.978Z,59.90
2022-09-15T08:16:11.124Z,60.70
2022-09-15T08:18:39.266Z,59.80
2022-09-15T08:21:15.494Z,58.40
2022-09-15T08:23:42.902Z,58.20
2022-09-15T08:26:14.066Z,57.70
2022-09-15T08:28:42.013Z,58.10
2022-09-15T08:31:11.519Z,58.00
2022-09-15T08:33:41.964Z,57.80
2022-09-15T08:36:13.262Z,57.80
2022-09-15T08:38:41.156Z,57.50
2022-09-15T08:41:15.050Z,55.90
2022-09-15T08:43:50.048Z,55.90
2022-09-15T08:46:24.727Z,55.50
2022-09-15T08:49:03.436Z,55.60
2022-09-15T08:51:46.396Z,56.00
2022-09-15T08:54:22.951Z,55.70
2022-09-15T08:56:50.213Z,55.50
2022-09-15T08:59:19.127Z,55.00
2022-09-15T09:02:23.956Z,54.10
2022-09-15T09:05:30.330Z,53.50
2022-09-15T09:08:23.223Z,52.20
2022-09-15T09:11:07.719Z,51.70
2022-09-15T09:13:36.632Z,51.70
2022-09-15T09:16:13.912Z,51.70
2022-09-15T09:18:47.021Z,52.50
2022-09-15T09:21:21.810Z,51.10
2022-09-15T09:24:07.458Z,51.60
2022-09-15T09:26:36.529Z,51.10
2022-09-15T09:29:19.606Z,49.40
2022-09-15T09:31:49.023Z,48.50
2022-09-15T09:34:19.568Z,49.00
2022-09-15T09:36:52.594Z,48.40
2022-09-15T09:39:19.434Z,48.50
2022-09-15T09:41:46.726Z,48.40
2022-09-15T09:44:15.050Z,47.20
2022-09-15T09:46:42.402Z,47.10
2022-09-15T09:49:56.005Z,48.20
2022-09-15T09:52:37.485Z,48.30
2022-09-15T09:55:24.914Z,46.70
2022-09-15T09:57:54.126Z,47.90
2022-09-15T10:00:32.164Z,48.00
2022-09-15T10:03:32.993Z,47.60
2022-09-15T10:06:19.747Z,47.80
2022-09-15T10:08:54.863Z,48.30
2022-09-15T10:11:22.735Z,46.80
2022-09-15T10:13:52.982Z,47.50
2022-09-15T10:16:22.429Z,46.40
2022-09-15T10:18:54.246Z,41.60
2022-09-15T10:21:24.837Z,41.30
2022-09-15T10:23:51.768Z,43.20
2022-09-15T10:26:34.403Z,43.30
2022-09-15T10:29:11.551Z,42.40
2022-09-15T10:31:38.539Z,40.90
2022-09-15T10:34:28.715Z,40.10
2022-09-15T10:37:13.707Z,39.70
2022-09-15T10:39:49.678Z,40.70
2022-09-15T10:42:43.457Z,39.10
2022-09-15T10:45:27.555Z,39.30
2022-09-15T10:48:07.715Z,40.00
2022-09-15T10:50:43.459Z,39.50
2022-09-15T10:53:41.031Z,38.60
2022-09-15T10:56:34.390Z,36.50
2022-09-15T10:59:40.471Z,35.90
2022-09-15T11:02:37.032Z,37.00
2022-09-15T11:05:34.541Z,35.40
2022-09-15T11:08:35.576Z,35.80
2022-09-15T11:11:11.594Z,36.30
2022-09-15T11:13:44.331Z,37.00
2022-09-15T11:16:49.015Z,37.90
2022-09-15T11:19:34.444Z,38.40
2022-09-15T11:22:15.621Z,39.80
2022-09-15T11:24:50.750Z,41.30
2022-09-15T11:27:41.227Z,41.20
2022-09-15T11:30:24.668Z,40.60
2022-09-15T11:33:11.826Z,39.50
2022-09-15T11:35:58.530Z,38.30
2022-09-15T11:38:50.307Z,37.90
2022-09-15T11:41:22.678Z,36.80
2022-09-15T11:44:07.877Z,36.40
2022-09-15T11:46:52.965Z,36.40
2022-09-15T11:49:24.931Z,36.30
2022-09-15T11:52:15.203Z,37.40
2022-09-15T11:55:05.701Z,37.30
2022-09-15T11:57:43.899Z,38.00
2022-09-15T12:00:13.966Z,39.00
2022-09-15T12:02:43.425Z,39.80
2022-09-15T12:05:13.264Z,40.40
2022-09-15T12:07:55.118Z,39.90
2022-09-15T12:10:28.374Z,38.80
2022-09-15T12:13:02.277Z,38.30
2022-09-15T12:15:29.868Z,36.60
2022-09-15T12:18:34.299Z,35.50
2022-09-15T12:21:05.976Z,35.60
2022-09-15T12:23:36.404Z,36.80
2022-09-15T12:26:23.383Z,37.90
2022-09-15T12:28:57.419Z,39.50
2022-09-15T12:31:34.354Z,39.30
2022-09-15T12:34:25.809Z,38.00
2022-09-15T12:36:54.682Z,36.70
2022-09-15T12:39:38.088Z,34.70
2022-09-15T12:42:10.868Z,31.00
2022-09-15T12:44:44.543Z,29.50
2022-09-15T12:47:41.450Z,21.10
2022-09-15T12:50:18.271Z,17.60
2022-09-15T12:52:49.959Z,14.70
2022-09-15T12:55:23.846Z,13.60
2022-09-15T12:58:03.612Z,17.90
2022-09-15T13:00:32.523Z,22.30
2022-09-15T13:03:00.458Z,25.20
2022-09-15T13:05:42.665Z,28.10
2022-09-15T13:08:25.509Z,29.20
2022-09-15T13:11:12.309Z,27.90
2022-09-15T13:13:54.479Z,24.50
2022-09-15T13:16:40.173Z,19.50
2022-09-15T13:19:28.110Z,12.20
2022-09-15T13:22:09.821Z,3.60
2022-09-15T13:24:54.523Z,2.00
2022-09-15T13:27:49.907Z,7.50
2022-09-15T13:30:58.411Z,9.70
2022-09-15T13:40:12.968Z,16.60
2022-09-15T13:43:25.439Z,10.80
2022-09-15T13:46:30.584Z,13.50
2022-09-15T13:49:15.938Z,13.10
2022-09-15T13:51:45.485Z,12.50
2022-09-15T13:54:19.346Z,7.70
2022-09-15T13:56:47.391Z,11.30
2022-09-15T13:59:24.155Z,16.90
2022-09-15T14:01:52.867Z,11.50
2022-09-15T14:04:27.836Z,13.70
2022-09-15T14:07:01.378Z,14.70
2022-09-15T14:09:37.381Z,18.60
2022-09-15T14:12:12.122Z,18.10
2022-09-15T14:14:42.979Z,21.30
2022-09-15T14:17:24.866Z,23.60
2022-09-15T14:19:54.377Z,25.10
2022-09-15T14:22:21.300Z,26.70
2022-09-15T14:24:50.171Z,28.20
2022-09-15T14:27:32.002Z,29.00
2022-09-15T14:30:03.685Z,29.90
2022-09-15T14:32:35.627Z,31.70
2022-09-15T14:35:07.404Z,32.60
2022-09-15T14:37:34.719Z,34.00
2022-09-15T14:40:23.615Z,34.90
2022-09-15T14:42:50.518Z,34.70
2022-09-15T14:48:14.118Z,34.40
2022-09-15T14:50:41.878Z,34.40
2022-09-15T14:53:23.408Z,33.30
2022-09-15T14:56:20.029Z,32.40
2022-09-15T14:58:56.180Z,32.70
2022-09-15T15:01:31.484Z,32.50
2022-09-15T15:04:09.881Z,32.90
2022-09-15T15:06:52.413Z,33.20
2022-09-15T15:09:19.184Z,33.80
2022-09-15T15:11:54.841Z,34.60
2022-09-15T15:14:24.696Z,34.90
2022-09-15T15:16:57.016Z,34.00
2022-09-15T15:19:46.723Z,33.40
2022-09-15T15:22:13.626Z,32.20
2022-09-15T15:24:43.536Z,32.40
2022-09-15T15:27:35.697Z,32.30
2022-09-15T15:30:30.813Z,32.80
2022-09-15T15:33:09.346Z,33.50
2022-09-15T15:35:36.270Z,33.90
2022-09-15T15:38:25.462Z,34.20
2022-09-15T15:41:07.862Z,34.80
2022-09-15T15:43:37.886Z,35.90
2022-09-15T15:46:06.607Z,36.90
2022-09-15T15:48:38.377Z,37.70
2022-09-15T15:51:07.446Z,38.60
2022-09-15T15:53:37.617Z,39.50
2022-09-15T15:56:04.395Z,39.70
2022-09-15T15:58:31.376Z,39.70
2022-09-15T16:00:58.176Z,39.90
2022-09-15T16:03:25.580Z,39.20
2022-09-15T16:05:59.511Z,39.70
2022-09-15T16:08:29.679Z,40.20
2022-09-15T16:10:59.755Z,40.90
2022-09-15T16:13:26.763Z,41.60
2022-09-15T16:15:54.423Z,42.40
2022-09-15T16:18:21.455Z,42.90
2022-09-15T16:20:48.687Z,42.90
2022-09-15T16:23:17.620Z,42.80
2022-09-15T16:26:01.140Z,43.50
2022-09-15T16:28:30.925Z,44.30
2022-09-15T16:31:00.698Z,44.60
2022-09-15T16:33:27.563Z,44.80
2022-09-15T16:36:03.665Z,44.90
2022-09-15T16:38:30.543Z,45.20
2022-09-15T16:40:57.726Z,46.20
2022-09-15T16:43:24.511Z,46.20
2022-09-15T16:45:53.867Z,46.70
2022-09-15T16:48:22.963Z,46.20
2022-09-15T16:51:16.791Z,46.30
2022-09-15T16:53:41.241Z,46.30
2022-09-15T16:56:14.007Z,46.20
2022-09-15T16:58:41.791Z,46.90
2022-09-15T17:01:20.479Z,47.10
2022-09-15T17:03:48.394Z,47.40
2022-09-15T17:06:17.696Z,47.60
2022-09-15T17:08:45.010Z,47.60
2022-09-15T17:11:16.673Z,47.20
2022-09-15T17:13:44.574Z,47.40
2022-09-15T17:16:13.986Z,47.20
2022-09-15T17:18:43.392Z,47.70
2022-09-15T17:21:14.956Z,47.70
2022-09-15T17:23:45.490Z,48.10
2022-09-15T17:26:15.528Z,47.70
2022-09-15T17:28:45.892Z,48.20
2022-09-15T17:31:21.513Z,48.20
2022-09-15T17:33:49.551Z,48.30
2022-09-15T17:36:17.061Z,48.60
2022-09-15T17:38:48.941Z,48.60
2022-09-15T17:41:22.737Z,48.80
2022-09-15T17:43:49.662Z,49.20
2022-09-15T17:46:16.740Z,49.50
2022-09-15T17:48:45.908Z,49.90
2022-09-15T17:51:19.903Z,50.60
2022-09-15T17:53:47.625Z,50.90
2022-09-15T17:56:14.499Z,50.80
2022-09-15T17:58:43.853Z,51.20
2022-09-15T18:01:17.743Z,51.40
2022-09-15T18:03:45.220Z,51.50
2022-09-15T18:06:12.640Z,51.70
2022-09-15T18:08:39.905Z,52.00
2022-09-15T18:11:07.203Z,52.40
2022-09-15T18:13:34.451Z,52.90
2022-09-15T18:16:12.266Z,53.00
2022-09-15T18:18:41.599Z,53.30
2022-09-15T18:21:11.749Z,54.00
2022-09-15T18:23:42.488Z,54.50
2022-09-15T18:26:12.015Z,55.20
2022-09-15T18:28:38.762Z,55.40
2022-09-15T18:31:05.860Z,56.40
2022-09-15T18:33:32.637Z,56.50
2022-09-15T18:35:59.592Z,57.40
2022-09-15T18:38:27.002Z,57.50
2022-09-15T18:40:56.000Z,58.30
2022-09-15T18:43:25.117Z,58.80
2022-09-15T18:45:53.286Z,59.30
2022-09-15T18:48:20.254Z,59.80
2022-09-15T18:50:47.024Z,60.30
2022-09-15T18:53:14.418Z,60.80
2022-09-15T18:55:44.370Z,60.30
2022-09-15T18:58:12.327Z,60.30
2022-09-15T19:00:39.288Z,60.30
2022-09-15T19:03:09.368Z,60.30
2022-09-15T19:05:36.658Z,60.50
2022-09-15T19:08:08.336Z,60.50
2022-09-15T19:10:40.678Z,60.80
2022-09-15T19:13:11.566Z,60.80
2022-09-15T19:15:43.994Z,60.60
2022-09-15T19:18:11.118Z,60.50
2022-09-15T19:20:38.054Z,60.60
2022-09-15T19:23:04.879Z,60.80
2022-09-15T19:25:31.767Z,60.60
2022-09-15T19:27:58.752Z,60.70
2022-09-15T19:30:28.098Z,60.70
2022-09-15T19:32:55.193Z,61.00
2022-09-15T19:35:23.045Z,60.90
2022-09-15T19:37:49.962Z,61.20
2022-09-15T19:40:19.399Z,61.00
2022-09-15T19:42:46.356Z,60.70
2022-09-15T19:45:15.539Z,60.50
2022-09-15T19:47:42.443Z,60.60
2022-09-15T19:50:11.656Z,60.40
2022-09-15T19:52:38.974Z,60.40
2022-09-15T19:55:09.827Z,60.50
2022-09-15T19:57:41.364Z,60.60
2022-09-15T20:00:10.642Z,60.60
2022-09-15T20:02:37.635Z,60.60
2022-09-15T20:05:07.901Z,60.70
2022-09-15T20:07:35.114Z,60.60
2022-09-15T20:10:01.936Z,60.90
2022-09-15T20:12:28.777Z,60.90
2022-09-15T20:14:55.632Z,60.80
2022-09-15T20:17:22.656Z,61.00
2022-09-15T20:19:52.022Z,61.30
2022-09-15T20:22:23.685Z,61.50
2022-09-15T20:24:52.856Z,61.80
2022-09-15T20:27:19.712Z,62.00
2022-09-15T20:29:46.639Z,62.70
2022-09-15T20:32:13.591Z,63.40
2022-09-15T20:34:42.956Z,63.40
2022-09-15T20:37:09.808Z,63.00
2022-09-15T20:39:36.673Z,62.90
2022-09-15T20:42:06.048Z,63.20
2022-09-15T20:44:32.828Z,63.30
2022-09-15T20:47:02.111Z,64.00
2022-09-15T20:49:29.022Z,64.30
2022-09-15T20:51:55.750Z,64.20
2022-09-15T20:54:24.816Z,64.60
2022-09-15T20:56:51.607Z,64.30
2022-09-15T20:59:18.444Z,64.70
2022-09-15T21:01:47.485Z,64.60
2022-09-15T21:04:15.190Z,65.00
2022-09-15T21:06:44.198Z,65.30
2022-09-15T21:09:14.073Z,65.40
2022-09-15T21:11:43.253Z,65.70
2022-09-15T21:14:15.351Z,65.60
2022-09-15T21:16:45.146Z,66.20
2022-09-15T21:19:17.392Z,66.70
2022-09-15T21:21:44.512Z,66.90
2022-09-15T21:24:11.232Z,67.60
2022-09-15T21:27:00.103Z,67.30
2022-09-15T21:29:28.446Z,67.40
2022-09-15T21:31:55.930Z,67.20
2022-09-15T21:34:23.336Z,66.90
2022-09-15T21:36:53.505Z,66.50
2022-09-15T21:39:20.370Z,65.90
2022-09-15T21:41:49.755Z,65.90
2022-09-15T21:44:16.664Z,65.50
2022-09-15T21:46:44.904Z,66.00
2022-09-15T21:49:13.943Z,65.10
2022-09-15T21:51:42.952Z,65.10
2022-09-15T21:54:10.161Z,65.10
2022-09-15T21:56:39.214Z,65.10
2022-09-15T21:59:06.132Z,65.30
2022-09-15T22:01:35.837Z,65.70
2022-09-15T22:04:07.666Z,66.70
2022-09-15T22:06:40.497Z,67.20
2022-09-15T22:09:13.085Z,67.60
2022-09-15T22:11:40.057Z,68.20
2022-09-15T22:14:10.408Z,69.00
2022-09-15T22:16:38.889Z,68.80
2022-09-15T22:19:07.166Z,69.40
2022-09-15T22:21:36.897Z,69.60
2022-09-15T22:24:09.321Z,69.60
2022-09-15T22:26:38.435Z,69.60
2022-09-15T22:29:06.377Z,69.60
2022-09-15T22:31:34.439Z,69.90
2022-09-15T22:34:04.392Z,69.60
2022-09-15T22:36:31.930Z,69.30
2022-09-15T22:39:06.334Z,69.50
2022-09-15T22:41:35.713Z,69.50
2022-09-15T22:44:03.384Z,70.00
2022-09-15T22:46:31.105Z,69.60
2022-09-15T22:48:59.971Z,69.50
2022-09-15T22:51:29.071Z,69.60
2022-09-15T22:53:57.370Z,69.60
2022-09-15T22:56:27.550Z,69.50
2022-09-15T22:58:56.014Z,69.50
2022-09-15T23:01:25.373Z,69.50
2022-09-15T23:03:54.077Z,69.40
2022-09-15T23:06:22.112Z,69.50
2022-09-15T23:08:53.619Z,69.50
2022-09-15T23:11:24.448Z,69.90
2022-09-15T23:13:53.259Z,69.90
2022-09-15T23:16:24.333Z,69.90
2022-09-15T23:18:52.645Z,69.70
2022-09-15T23:21:20.521Z,69.70
2022-09-15T23:23:49.115Z,69.50
2022-09-15T23:26:19.459Z,69.10
2022-09-15T23:28:46.237Z,69.40
2022-09-15T23:31:13.504Z,69.20
2022-09-15T23:33:41.076Z,69.30
2022-09-15T23:36:12.329Z,69.20
2022-09-15T23:38:41.118Z,69.30
2022-09-15T23:41:08.771Z,68.70
2022-09-15T23:43:35.591Z,68.40
2022-09-15T23:46:03.721Z,68.20
2022-09-15T23:48:36.139Z,68.30
2022-09-15T23:51:03.610Z,68.60
2022-09-15T23:53:30.775Z,68.70
2022-09-15T23:55:57.664Z,68.70
2022-09-15T23:58:24.772Z,68.60
